EGJA/ACI METAR and TAF weather

Enter ICAO airport designator
Station Type Date Time Source
EGJA METAR 2019/10/21 17:20 UTC NOAA

EGJA 211720Z 03006KT 9999 SCT017 12/09 Q1021


Station Type Date Time Source
EGJA Decoded METAR 2019/10/21 17:20 UTC NOAA

Alderney / Channel Island, United Kingdom (EGJA) 49-43N 002-12W
Oct 21, 2019 - 01:20 PM EDT / 2019.10.21 1720 UTC
Wind: from the NNE (030 degrees) at 7 MPH (6 KT):0
Visibility: greater than 7 mile(s):0
Sky conditions: partly cloudy
Temperature: 53 F (12 C)
Dew Point: 48 F (9 C)
Relative Humidity: 81%
Pressure (altimeter): 30.15 in. Hg (1021 hPa)
ob: EGJA 211720Z 03006KT 9999 SCT017 12/09 Q1021
cycle: 17

Station Type Date Time Source
EGJA TAF UTC NOAA

Error!

Example: see airport list